Time;durP1;ratioP1;P1;durP2;ratioP2;P2;SDS_P1;SDS_P2;PMS_P1;PMS_P2;Temp;Humidity;BMP_temperature;BMP_pressure;BME280_temperature;BME280_humidity;BME280_pressure;Samples;Min_cycle;Max_cycle;Signal;HPM_P1;HPM_P2
2022/02/23 00:02:16;;;;;;;16.52;2.40;;;6.20;99.90;;;;;;5113817;28;20027;-77
2022/02/23 00:04:41;;;;;;;14.35;2.03;;;6.30;99.90;;;;;;5112328;28;20035;-75
2022/02/23 00:07:07;;;;;;;22.15;2.35;;;6.30;99.90;;;;;;5113476;28;20393;-78
2022/02/23 00:09:32;;;;;;;15.98;3.28;;;6.20;99.90;;;;;;5113446;28;20148;-76
2022/02/23 00:11:58;;;;;;;21.38;3.42;;;6.20;99.90;;;;;;5113565;28;20016;-76
2022/02/23 00:14:23;;;;;;;17.75;3.25;;;6.20;99.90;;;;;;5113555;28;20023;-76
2022/02/23 00:16:52;;;;;;;14.02;3.08;;;6.10;99.90;;;;;;5113041;28;20427;-75
2022/02/23 00:19:17;;;;;;;25.20;2.47;;;6.10;99.90;;;;;;5112629;28;20046;-75
2022/02/23 00:21:43;;;;;;;20.05;2.97;;;6.10;99.90;;;;;;5112718;28;20027;-76
2022/02/23 00:24:08;;;;;;;28.02;4.45;;;6.10;99.90;;;;;;5112298;28;20474;-75
2022/02/23 00:26:34;;;;;;;22.27;2.78;;;6.20;99.90;;;;;;5113036;28;20020;-76
2022/02/23 00:29:01;;;;;;;16.55;4.35;;;6.20;99.90;;;;;;5112701;28;20032;-76
2022/02/23 00:31:27;;;;;;;18.38;2.45;;;6.20;99.90;;;;;;5112461;28;20024;-76
2022/02/23 00:33:52;;;;;;;20.13;2.75;;;6.20;99.90;;;;;;5113709;28;20027;-75
2022/02/23 00:36:18;;;;;;;15.52;2.65;;;6.20;99.90;;;;;;5113300;28;20493;-76
2022/02/23 00:38:44;;;;;;;25.42;2.85;;;6.10;99.90;;;;;;5112116;28;20024;-77
2022/02/23 00:41:09;;;;;;;16.70;2.83;;;6.10;99.90;;;;;;5112957;28;20482;-78
2022/02/23 00:43:35;;;;;;;13.57;2.35;;;6.10;99.90;;;;;;5112732;28;20360;-76
2022/02/23 00:46:00;;;;;;;21.80;2.42;;;6.10;99.90;;;;;;5111227;28;20032;-76
2022/02/23 00:48:26;;;;;;;19.33;2.97;;;6.00;99.90;;;;;;5112692;28;20022;-76
2022/02/23 00:50:52;;;;;;;21.23;4.90;;;6.00;99.90;;;;;;5112326;28;20019;-77
2022/02/23 00:53:18;;;;;;;17.20;3.03;;;6.00;99.90;;;;;;5111646;28;20514;-76
2022/02/23 00:55:43;;;;;;;20.60;2.90;;;6.00;99.90;;;;;;5112313;28;20051;-77
2022/02/23 00:58:09;;;;;;;16.58;2.75;;;5.90;99.90;;;;;;5112977;28;20028;-78
2022/02/23 01:00:35;;;;;;;11.05;2.22;;;5.90;99.90;;;;;;5112531;28;20028;-76
2022/02/23 01:03:00;;;;;;;21.20;2.53;;;5.90;99.90;;;;;;5113021;28;20027;-76
2022/02/23 01:05:26;;;;;;;20.48;2.97;;;5.80;99.90;;;;;;5113802;28;20039;-77
2022/02/23 01:07:51;;;;;;;13.05;1.92;;;5.90;99.90;;;;;;5115943;27;20019;-76
2022/02/23 01:10:17;;;;;;;15.48;2.92;;;5.80;99.90;;;;;;5116931;28;20043;-78
2022/02/23 01:12:43;;;;;;;24.13;2.97;;;5.70;99.90;;;;;;5116432;28;20494;-76
2022/02/23 01:15:08;;;;;;;19.88;2.47;;;5.70;99.90;;;;;;5116316;28;20503;-75
2022/02/23 01:17:34;;;;;;;17.20;2.13;;;5.70;99.90;;;;;;5116631;28;20116;-76
2022/02/23 01:20:00;;;;;;;18.77;3.75;;;5.70;99.90;;;;;;5116071;28;20463;-77
2022/02/23 01:22:25;;;;;;;15.82;3.38;;;5.70;99.90;;;;;;5115831;28;20119;-77
2022/02/23 01:24:51;;;;;;;16.92;2.17;;;5.70;99.90;;;;;;5116115;28;20035;-77
2022/02/23 01:27:17;;;;;;;14.02;2.28;;;5.70;99.90;;;;;;5116109;28;20391;-77
2022/02/23 01:29:42;;;;;;;15.43;3.15;;;5.60;99.90;;;;;;5116017;28;20036;-77
2022/02/23 01:32:08;;;;;;;10.07;1.98;;;5.50;99.90;;;;;;5116690;28;20020;-78
2022/02/23 01:34:34;;;;;;;18.38;3.15;;;5.60;99.90;;;;;;5116303;28;20023;-77
2022/02/23 01:37:00;;;;;;;13.13;1.98;;;5.50;99.90;;;;;;5116504;28;20507;-76
2022/02/23 01:39:25;;;;;;;12.15;2.38;;;5.40;99.90;;;;;;5116569;28;20113;-75
2022/02/23 01:41:51;;;;;;;21.33;2.95;;;5.20;99.90;;;;;;5115300;28;20073;-76
2022/02/23 01:44:16;;;;;;;19.92;2.50;;;5.10;99.90;;;;;;5116487;28;20053;-76
2022/02/23 01:46:42;;;;;;;19.98;3.10;;;5.20;99.90;;;;;;5116084;28;20016;-77
2022/02/23 01:49:07;;;;;;;11.25;2.47;;;5.30;99.90;;;;;;5115681;28;20028;-76
2022/02/23 01:51:33;;;;;;;15.88;2.42;;;5.30;99.90;;;;;;5116543;28;20031;-77
2022/02/23 01:53:58;;;;;;;10.30;2.13;;;5.30;99.90;;;;;;5115733;28;20020;-76
2022/02/23 01:56:24;;;;;;;7.97;2.30;;;5.20;99.90;;;;;;5115362;28;20034;-75
2022/02/23 01:58:50;;;;;;;11.82;4.50;;;5.20;99.90;;;;;;5116120;28;20028;-77
2022/02/23 02:01:15;;;;;;;16.60;2.30;;;5.10;99.90;;;;;;5116498;28;20471;-77
2022/02/23 02:03:41;;;;;;;15.52;2.33;;;5.10;99.90;;;;;;5114835;28;20127;-77
2022/02/23 02:06:06;;;;;;;16.05;3.65;;;5.00;99.90;;;;;;5116204;28;20035;-77
2022/02/23 02:08:32;;;;;;;17.52;2.75;;;5.00;99.90;;;;;;5115971;28;20075;-77
2022/02/23 02:10:57;;;;;;;19.92;3.33;;;5.10;99.90;;;;;;5114768;28;20085;-75
2022/02/23 02:13:23;;;;;;;17.85;3.05;;;5.10;99.90;;;;;;5116274;28;20019;-75
2022/02/23 02:15:48;;;;;;;10.55;2.28;;;5.20;99.90;;;;;;5115475;28;20424;-75
2022/02/23 02:18:14;;;;;;;22.63;3.40;;;5.20;99.90;;;;;;5115334;28;20352;-76
2022/02/23 02:20:40;;;;;;;18.13;2.72;;;5.20;99.90;;;;;;5115297;28;20023;-76
2022/02/23 02:23:05;;;;;;;16.70;2.70;;;5.30;99.90;;;;;;5116326;28;20524;-76
2022/02/23 02:25:31;;;;;;;14.02;2.30;;;5.30;99.90;;;;;;5115041;28;20543;-77
2022/02/23 02:27:56;;;;;;;21.00;2.30;;;5.30;99.90;;;;;;5115730;28;20024;-76
2022/02/23 02:30:22;;;;;;;20.92;3.67;;;5.30;99.90;;;;;;5115877;28;20055;-76
2022/02/23 02:32:47;;;;;;;17.63;3.40;;;5.30;99.90;;;;;;5115954;28;20020;-76
2022/02/23 02:35:17;;;;;;;22.65;3.28;;;5.20;99.90;;;;;;5115817;28;20024;-77
2022/02/23 02:37:43;;;;;;;20.37;3.83;;;5.10;99.90;;;;;;5114379;28;20094;-76
2022/02/23 02:40:09;;;;;;;11.38;2.05;;;5.20;99.90;;;;;;5115866;28;20479;-77
2022/02/23 02:42:35;;;;;;;21.63;3.15;;;5.10;99.90;;;;;;5115993;28;20498;-76
2022/02/23 02:45:00;;;;;;;17.77;2.47;;;5.10;99.90;;;;;;5114483;28;20035;-75
2022/02/23 02:47:29;;;;;;;15.15;2.38;;;5.00;99.90;;;;;;5115421;28;20035;-77
2022/02/23 02:49:54;;;;;;;17.10;2.45;;;4.90;99.90;;;;;;5114768;28;20103;-76
2022/02/23 02:52:20;;;;;;;12.05;2.67;;;4.90;99.90;;;;;;5114516;28;20132;-75
2022/02/23 02:54:45;;;;;;;16.27;2.03;;;4.90;99.90;;;;;;5114662;28;20019;-76
2022/02/23 02:57:14;;;;;;;16.48;2.50;;;4.90;99.90;;;;;;5115160;28;20031;-76
2022/02/23 02:59:39;;;;;;;25.50;2.85;;;4.90;99.90;;;;;;5115002;28;20055;-76
2022/02/23 03:02:05;;;;;;;23.83;3.60;;;4.90;99.90;;;;;;5115461;28;20375;-76
2022/02/23 03:04:30;;;;;;;14.60;2.55;;;4.90;99.90;;;;;;5114431;28;20111;-75
2022/02/23 03:06:56;;;;;;;13.02;2.35;;;4.90;99.90;;;;;;5114158;28;20077;-76
2022/02/23 03:09:21;;;;;;;16.50;2.10;;;4.90;99.90;;;;;;5114726;28;20040;-76
2022/02/23 03:11:47;;;;;;;18.98;2.75;;;5.00;99.90;;;;;;5114408;28;20095;-76
2022/02/23 03:14:13;;;;;;;15.98;2.22;;;5.10;99.90;;;;;;5114085;28;20447;-75
2022/02/23 03:16:38;;;;;;;23.13;3.00;;;5.10;99.90;;;;;;5114500;28;20073;-76
2022/02/23 03:19:04;;;;;;;15.35;2.28;;;5.20;99.90;;;;;;5114508;28;20084;-78
2022/02/23 03:21:30;;;;;;;21.50;2.65;;;5.10;99.90;;;;;;5113862;28;20502;-76
2022/02/23 03:23:55;;;;;;;18.45;2.60;;;5.10;99.90;;;;;;5114193;28;20097;-77
2022/02/23 03:26:21;;;;;;;8.70;2.13;;;5.20;99.90;;;;;;5114365;28;20019;-77
2022/02/23 03:28:46;;;;;;;18.08;3.47;;;5.10;99.90;;;;;;5112609;28;20035;-77
2022/02/23 03:31:13;;;;;;;11.15;1.95;;;5.00;99.90;;;;;;5114292;28;20024;-77
2022/02/23 03:33:42;;;;;;;13.55;2.38;;;4.90;99.90;;;;;;5113904;28;20034;-77
2022/02/23 03:36:10;;;;;;;23.15;2.90;;;4.90;99.90;;;;;;5113375;28;20027;-77
2022/02/23 03:38:36;;;;;;;9.35;2.58;;;4.90;99.90;;;;;;5114336;28;20114;-76
2022/02/23 03:41:01;;;;;;;17.10;2.75;;;4.90;99.90;;;;;;5113747;28;20112;-76
2022/02/23 03:43:27;;;;;;;14.68;2.88;;;5.00;99.90;;;;;;5114157;28;20358;-77
2022/02/23 03:45:53;;;;;;;22.95;2.75;;;4.90;99.90;;;;;;5113731;28;20034;-77
2022/02/23 03:48:18;;;;;;;15.63;2.42;;;5.00;99.90;;;;;;5113004;28;20032;-76
2022/02/23 03:50:44;;;;;;;20.17;4.60;;;5.00;99.90;;;;;;5113358;28;20058;-76
2022/02/23 03:53:10;;;;;;;8.50;2.10;;;5.00;99.90;;;;;;5113835;28;20103;-76
2022/02/23 03:55:35;;;;;;;16.08;2.03;;;4.80;99.90;;;;;;5112565;28;20085;-76
2022/02/23 03:58:01;;;;;;;20.23;3.03;;;4.80;99.90;;;;;;5113183;28;20023;-76
2022/02/23 04:00:27;;;;;;;12.07;2.45;;;4.90;99.90;;;;;;5113423;28;20061;-77
2022/02/23 04:02:52;;;;;;;15.80;2.75;;;4.80;99.90;;;;;;5112736;28;20020;-76
2022/02/23 04:05:18;;;;;;;8.52;2.13;;;4.80;99.90;;;;;;5113554;28;20477;-76
2022/02/23 04:07:43;;;;;;;16.20;3.63;;;4.80;99.90;;;;;;5112857;28;20031;-76
2022/02/23 04:10:09;;;;;;;19.85;4.15;;;4.70;99.90;;;;;;5112771;28;20088;-76
2022/02/23 04:12:35;;;;;;;15.75;2.53;;;4.60;99.90;;;;;;5113611;28;20016;-77
2022/02/23 04:15:01;;;;;;;15.00;2.85;;;4.60;99.90;;;;;;5113378;28;20038;-76
2022/02/23 04:17:26;;;;;;;11.40;3.15;;;4.60;99.90;;;;;;5112823;28;20047;-74
2022/02/23 04:19:52;;;;;;;15.55;3.80;;;4.50;99.90;;;;;;5112654;28;20054;-76
2022/02/23 04:22:18;;;;;;;16.08;3.95;;;4.40;99.90;;;;;;5112682;28;20020;-76
2022/02/23 04:24:43;;;;;;;21.00;3.88;;;4.50;99.90;;;;;;5112130;28;20055;-76
2022/02/23 04:27:09;;;;;;;23.50;5.40;;;4.50;99.90;;;;;;5113330;28;20494;-75
2022/02/23 04:29:34;;;;;;;17.88;5.35;;;4.50;99.90;;;;;;5112862;28;20431;-76
2022/02/23 04:32:00;;;;;;;16.13;3.47;;;4.40;99.90;;;;;;5112213;28;20471;-77
2022/02/23 04:34:26;;;;;;;17.65;4.88;;;4.50;99.90;;;;;;5112888;28;20446;-78
2022/02/23 04:36:52;;;;;;;14.23;3.38;;;4.50;99.90;;;;;;5112401;28;20065;-75
2022/02/23 04:39:18;;;;;;;7.00;3.10;;;4.60;99.90;;;;;;5111799;28;20051;-75
2022/02/23 04:41:44;;;;;;;17.10;3.38;;;4.50;99.90;;;;;;5112207;28;20031;-75
2022/02/23 04:44:10;;;;;;;16.70;3.92;;;4.50;99.90;;;;;;5113053;28;20557;-76
2022/02/23 04:46:36;;;;;;;19.80;3.78;;;4.50;99.90;;;;;;5112661;28;20165;-76
2022/02/23 04:49:05;;;;;;;15.18;3.05;;;4.30;99.90;;;;;;5113061;28;20076;-76
2022/02/23 04:51:30;;;;;;;13.18;2.42;;;4.30;99.90;;;;;;5112908;28;20375;-76
2022/02/23 04:53:57;;;;;;;15.73;2.75;;;4.20;99.90;;;;;;5112909;28;20034;-75
2022/02/23 04:56:23;;;;;;;20.27;3.33;;;4.30;99.90;;;;;;5112689;28;20024;-77
2022/02/23 04:58:49;;;;;;;19.75;2.97;;;4.40;99.90;;;;;;5112393;28;20027;-76
2022/02/23 05:01:15;;;;;;;16.35;3.75;;;4.30;99.90;;;;;;5113534;28;20023;-75
2022/02/23 05:03:41;;;;;;;10.65;2.83;;;4.30;99.90;;;;;;5112851;28;20077;-76
2022/02/23 05:06:07;;;;;;;13.50;2.78;;;4.30;99.90;;;;;;5114404;28;20057;-77
2022/02/23 05:08:33;;;;;;;13.77;3.00;;;4.30;99.90;;;;;;5113373;28;20050;-77
2022/02/23 05:10:58;;;;;;;26.63;2.67;;;4.20;99.90;;;;;;5113121;28;20023;-76
2022/02/23 05:13:29;;;;;;;14.57;2.67;;;4.20;99.90;;;;;;5111918;28;20482;-75
2022/02/23 05:15:59;;;;;;;14.50;2.40;;;4.30;99.90;;;;;;5112668;28;20107;-77
2022/02/23 05:18:29;;;;;;;28.23;4.18;;;4.30;99.90;;;;;;5117575;28;20137;-77
2022/02/23 05:20:56;;;;;;;13.80;2.67;;;4.40;99.90;;;;;;5117712;28;20027;-76
2022/02/23 05:23:22;;;;;;;12.95;3.20;;;4.50;99.90;;;;;;5114011;28;20039;-76
2022/02/23 05:25:51;;;;;;;17.98;2.22;;;4.40;99.90;;;;;;5112027;28;20038;-76
2022/02/23 05:28:18;;;;;;;12.65;2.60;;;5.10;99.90;;;;;;5111524;28;20055;-77
2022/02/23 05:30:43;;;;;;;17.98;2.90;;;4.40;99.90;;;;;;5111960;28;20027;-75
2022/02/23 05:33:09;;;;;;;27.25;5.22;;;4.30;99.90;;;;;;5112117;28;20027;-77
2022/02/23 05:35:35;;;;;;;13.50;2.58;;;4.40;99.90;;;;;;5111405;28;20043;-76
2022/02/23 05:38:00;;;;;;;14.82;1.95;;;4.30;99.90;;;;;;5111851;28;20024;-76
2022/02/23 05:40:26;;;;;;;13.40;3.00;;;4.20;99.90;;;;;;5112128;28;20027;-76
2022/02/23 05:42:54;;;;;;;25.08;3.13;;;4.30;99.90;;;;;;5110841;28;20035;-77
2022/02/23 05:45:19;;;;;;;10.55;2.53;;;4.30;99.90;;;;;;5112014;28;20039;-77
2022/02/23 05:47:45;;;;;;;23.67;3.47;;;4.30;99.90;;;;;;5111186;28;20035;-77
2022/02/23 05:50:11;;;;;;;10.68;2.00;;;4.20;99.90;;;;;;5112729;28;20053;-77
2022/02/23 05:52:37;;;;;;;14.00;3.20;;;4.20;99.90;;;;;;5115224;28;20057;-76
2022/02/23 05:55:06;;;;;;;16.75;3.67;;;4.20;99.90;;;;;;5115493;28;20028;-77
2022/02/23 05:57:32;;;;;;;12.77;2.80;;;4.10;99.90;;;;;;5115766;28;20023;-78
2022/02/23 06:00:01;;;;;;;15.80;3.05;;;4.00;99.90;;;;;;5115386;28;20543;-75
2022/02/23 06:02:27;;;;;;;13.90;2.05;;;4.00;99.90;;;;;;5114562;28;20040;-78
2022/02/23 06:04:52;;;;;;;17.25;3.22;;;4.00;99.90;;;;;;5115358;28;20461;-77
2022/02/23 06:07:18;;;;;;;12.18;2.78;;;4.00;99.90;;;;;;5115526;28;20016;-77
2022/02/23 06:09:43;;;;;;;20.92;2.95;;;4.10;99.90;;;;;;5114545;28;20051;-78
2022/02/23 06:12:09;;;;;;;18.60;2.30;;;4.00;99.90;;;;;;5115638;28;20475;-78
2022/02/23 06:14:35;;;;;;;12.73;2.13;;;4.00;99.90;;;;;;5115497;28;20028;-77
2022/02/23 06:17:01;;;;;;;31.05;5.55;;;4.10;99.90;;;;;;5114644;28;20072;-77
2022/02/23 06:19:26;;;;;;;15.57;2.65;;;4.10;99.90;;;;;;5115735;28;20024;-76
2022/02/23 06:21:52;;;;;;;16.73;3.13;;;4.20;99.90;;;;;;5115166;28;20023;-77
2022/02/23 06:24:18;;;;;;;25.50;4.40;;;4.20;99.90;;;;;;5114866;28;20024;-78
2022/02/23 06:26:43;;;;;;;19.10;3.42;;;4.20;99.90;;;;;;5115303;28;20106;-77
2022/02/23 06:29:09;;;;;;;19.55;2.80;;;4.20;99.90;;;;;;5115779;28;20023;-77
2022/02/23 06:31:35;;;;;;;19.67;2.75;;;4.20;99.90;;;;;;5115327;28;20069;-77
2022/02/23 06:34:00;;;;;;;18.77;2.83;;;4.10;99.90;;;;;;5115674;28;20391;-77
2022/02/23 06:36:26;;;;;;;17.35;3.42;;;4.10;99.90;;;;;;5115887;28;20027;-77
2022/02/23 06:38:54;;;;;;;26.20;4.80;;;4.10;99.90;;;;;;5114653;28;20024;-77
2022/02/23 06:41:22;;;;;;;21.05;2.65;;;4.10;99.90;;;;;;5115785;28;20035;-77
2022/02/23 06:43:48;;;;;;;26.92;5.75;;;4.20;99.90;;;;;;5114893;28;20541;-77
2022/02/23 06:46:14;;;;;;;21.02;3.72;;;4.20;99.90;;;;;;5115450;28;20067;-77
2022/02/23 06:48:40;;;;;;;17.98;3.42;;;4.30;99.90;;;;;;5115202;28;20443;-77
2022/02/23 06:51:07;;;;;;;24.58;3.47;;;4.30;99.90;;;;;;5115069;28;20053;-77
2022/02/23 06:53:33;;;;;;;21.02;3.47;;;4.40;99.90;;;;;;5115744;28;20027;-77
2022/02/23 06:55:59;;;;;;;13.80;3.08;;;4.40;99.90;;;;;;5115298;28;20402;-78
2022/02/23 06:58:24;;;;;;;18.70;3.65;;;4.40;99.90;;;;;;5114869;28;20034;-77
2022/02/23 07:00:50;;;;;;;20.27;3.28;;;4.40;99.90;;;;;;5116515;28;20016;-77
2022/02/23 07:03:16;;;;;;;26.92;3.72;;;4.40;99.90;;;;;;5114235;28;20028;-78
2022/02/23 07:05:41;;;;;;;18.08;3.05;;;4.30;99.90;;;;;;5114014;28;20069;-77
2022/02/23 07:08:08;;;;;;;15.05;2.60;;;4.30;99.90;;;;;;5115289;28;20387;-75
2022/02/23 07:10:35;;;;;;;21.35;5.38;;;4.30;99.90;;;;;;5115064;28;20138;-77
2022/02/23 07:13:06;;;;;;;18.38;2.85;;;4.20;99.90;;;;;;5115452;27;20502;-77
2022/02/23 07:15:34;;;;;;;18.58;2.65;;;4.30;99.90;;;;;;5113236;27;20051;-77
2022/02/23 07:17:59;;;;;;;20.25;2.60;;;4.50;99.90;;;;;;5112530;27;20065;-77
2022/02/23 07:20:25;;;;;;;26.20;2.63;;;4.40;99.90;;;;;;5112855;27;20043;-77
2022/02/23 07:22:51;;;;;;;17.45;2.80;;;4.40;99.90;;;;;;5111969;28;20119;-76
2022/02/23 07:25:17;;;;;;;15.27;2.75;;;4.40;99.90;;;;;;5112046;27;20044;-77
2022/02/23 07:27:44;;;;;;;17.83;2.88;;;4.30;99.90;;;;;;5111514;27;20368;-76
2022/02/23 07:30:11;;;;;;;11.52;2.47;;;4.30;99.90;;;;;;5100850;27;20031;-75
2022/02/23 07:32:37;;;;;;;14.93;2.97;;;4.20;99.90;;;;;;5112761;28;20491;-75
2022/02/23 07:35:05;;;;;;;16.23;3.10;;;4.20;99.90;;;;;;5112425;28;20031;-76
2022/02/23 07:37:33;;;;;;;12.65;4.25;;;4.20;99.90;;;;;;5114383;28;20094;-76
2022/02/23 07:40:18;;;;;;;23.23;5.30;;;4.30;99.90;;;;;;5115760;28;20024;-76
2022/02/23 07:42:44;;;;;;;19.55;2.92;;;4.30;99.90;;;;;;5122193;27;20027;-76
2022/02/23 07:45:10;;;;;;;22.63;3.10;;;4.40;99.90;;;;;;5113467;27;20038;-77
2022/02/23 07:47:36;;;;;;;25.98;3.00;;;4.40;99.90;;;;;;5114158;27;20020;-77
2022/02/23 07:50:11;;;;;;;18.35;2.67;;;4.40;99.90;;;;;;5116218;27;20424;-76
2022/02/23 07:52:37;;;;;;;27.10;4.07;;;4.50;99.90;;;;;;5114438;28;20029;-77
2022/02/23 07:55:03;;;;;;;16.88;2.45;;;4.70;99.90;;;;;;5115258;27;20015;-76
2022/02/23 07:57:29;;;;;;;16.60;3.45;;;4.70;99.90;;;;;;5113404;28;20024;-76
2022/02/23 07:59:55;;;;;;;23.42;3.63;;;4.80;99.90;;;;;;5116715;27;20016;-75
2022/02/23 08:02:21;;;;;;;15.88;3.03;;;4.90;99.90;;;;;;5113912;28;20032;-76
2022/02/23 08:04:51;;;;;;;18.15;2.90;;;5.00;99.90;;;;;;5118663;27;20027;-75
2022/02/23 08:07:21;;;;;;;15.45;3.08;;;5.10;99.90;;;;;;5113762;28;20035;-77
2022/02/23 08:09:47;;;;;;;12.05;2.92;;;5.10;99.90;;;;;;5112734;28;20044;-77
2022/02/23 08:12:13;;;;;;;14.18;3.28;;;5.30;99.90;;;;;;5113086;28;20023;-77
2022/02/23 08:14:39;;;;;;;19.75;3.22;;;5.30;99.90;;;;;;5114978;27;20047;-76
2022/02/23 08:19:51;;;;;;;17.38;3.63;;;5.30;99.90;;;;;;5113326;28;20118;-76
2022/02/23 08:22:17;;;;;;;14.75;3.30;;;5.40;99.90;;;;;;5116035;27;20057;-76
2022/02/23 08:24:48;;;;;;;19.88;3.38;;;5.40;99.90;;;;;;5115528;27;20050;-77
2022/02/23 08:27:14;;;;;;;;;;;5.40;99.90;;;;;;5120789;27;20039;-77
2022/02/23 08:29:40;;;;;;;18.33;3.25;;;5.40;99.90;;;;;;5132482;27;19911;-84
2022/02/23 08:32:08;;;;;;;17.33;3.75;;;5.50;99.90;;;;;;5130147;27;20023;-83
2022/02/23 08:34:38;;;;;;;16.77;3.35;;;5.60;99.90;;;;;;5130638;27;20030;-82
2022/02/23 08:37:04;;;;;;;14.95;3.10;;;5.60;99.90;;;;;;5124869;27;20080;-84
2022/02/23 08:39:29;;;;;;;14.70;3.55;;;5.70;99.90;;;;;;5128601;27;20130;-80
2022/02/23 08:41:56;;;;;;;12.75;2.85;;;5.70;99.90;;;;;;5132655;27;20266;-80
2022/02/23 08:44:22;;;;;;;20.95;3.58;;;5.70;99.90;;;;;;5133049;27;20023;-79
2022/02/23 08:46:48;;;;;;;15.45;3.35;;;5.80;99.90;;;;;;5128153;27;20390;-81
2022/02/23 08:49:14;;;;;;;16.80;3.60;;;5.90;99.90;;;;;;5123613;28;20015;-80
2022/02/23 08:51:43;;;;;;;19.90;3.85;;;5.90;99.90;;;;;;5125148;28;20030;-81
2022/02/23 08:54:08;;;;;;;21.73;4.15;;;6.00;99.90;;;;;;5133054;27;20383;-80
2022/02/23 08:56:34;;;;;;;18.25;3.55;;;6.10;99.90;;;;;;5132500;27;20019;-85
2022/02/23 08:58:59;;;;;;;27.58;5.95;;;6.10;99.90;;;;;;5135383;27;20394;-80
2022/02/23 09:01:26;;;;;;;16.58;3.72;;;6.20;99.90;;;;;;5135099;27;20065;-84
2022/02/23 09:03:52;;;;;;;17.52;4.35;;;6.30;99.90;;;;;;5133600;28;20027;-82
2022/02/23 09:06:18;;;;;;;22.42;3.95;;;6.40;99.90;;;;;;5133256;27;20035;-79
2022/02/23 09:08:44;;;;;;;22.15;3.92;;;6.50;99.90;;;;;;5132212;28;20130;-82
2022/02/23 09:11:12;;;;;;;18.25;4.45;;;6.50;99.90;;;;;;5132899;27;20390;-82
2022/02/23 09:13:37;;;;;;;15.48;4.82;;;6.60;99.90;;;;;;5132489;27;20023;-81
2022/02/23 09:16:04;;;;;;;23.02;5.28;;;6.60;99.90;;;;;;5133044;28;20027;-82
2022/02/23 09:18:32;;;;;;;16.08;4.60;;;6.60;99.90;;;;;;5132935;28;20031;-79
2022/02/23 09:20:58;;;;;;;15.60;4.65;;;6.70;99.90;;;;;;5129388;28;20047;-79
2022/02/23 09:23:25;;;;;;;24.88;6.63;;;6.70;99.90;;;;;;5133153;28;20015;-78
2022/02/23 09:25:56;;;;;;;24.92;5.85;;;6.80;99.90;;;;;;5133373;27;20259;-77
2022/02/23 09:28:22;;;;;;;26.50;7.68;;;6.80;99.90;;;;;;5137559;27;20019;-81
2022/02/23 09:30:48;;;;;;;22.10;7.13;;;7.00;99.90;;;;;;5132815;27;20034;-80
2022/02/23 09:33:14;;;;;;;33.67;7.05;;;7.00;99.90;;;;;;5129248;27;20011;-77
2022/02/23 09:35:41;;;;;;;26.45;7.32;;;7.10;99.90;;;;;;5137221;27;20031;-82
2022/02/23 09:38:07;;;;;;;23.05;7.47;;;7.20;99.90;;;;;;5137475;27;20538;-77
2022/02/23 09:40:34;;;;;;;24.35;7.32;;;7.20;99.90;;;;;;5128140;27;20118;-80
2022/02/23 09:43:00;;;;;;;23.42;6.07;;;7.30;99.90;;;;;;5126935;27;20012;-81
2022/02/23 09:45:28;;;;;;;15.82;7.28;;;7.30;99.90;;;;;;5128070;27;20773;-79
2022/02/23 09:47:55;;;;;;;24.88;8.15;;;7.90;99.90;;;;;;5131278;27;20036;-82
2022/02/23 09:50:21;;;;;;;30.30;7.75;;;7.30;99.90;;;;;;5135378;27;20076;-83
2022/02/23 09:52:52;;;;;;;28.75;8.38;;;7.40;99.90;;;;;;5133214;27;20045;-85
2022/02/23 09:55:20;;;;;;;21.17;7.22;;;7.40;99.90;;;;;;5136096;27;20054;-84
2022/02/23 09:57:46;;;;;;;24.75;6.95;;;7.50;99.90;;;;;;5132621;27;20087;-84
2022/02/23 10:00:12;;;;;;;21.42;7.18;;;7.60;99.90;;;;;;5127322;27;20079;-83
2022/02/23 10:02:38;;;;;;;23.13;6.97;;;7.60;99.90;;;;;;5130013;27;20032;-84
2022/02/23 10:05:06;;;;;;;23.38;8.13;;;7.70;99.90;;;;;;5133825;27;20038;-77
2022/02/23 10:07:38;;;;;;;17.38;6.43;;;7.70;99.90;;;;;;5129513;27;20016;-83
2022/02/23 10:10:07;;;;;;;21.88;6.97;;;7.80;99.90;;;;;;5129957;27;20070;-81
2022/02/23 10:12:34;;;;;;;29.00;8.52;;;7.90;99.90;;;;;;5133453;27;20055;-82
2022/02/23 10:15:16;;;;;;;23.77;6.50;;;8.00;99.90;;;;;;5129839;27;20063;-83
2022/02/23 10:17:46;;;;;;;24.88;5.68;;;8.00;99.90;;;;;;5137623;27;20028;-81
2022/02/23 10:20:28;;;;;;;25.00;6.25;;;8.10;99.90;;;;;;5136998;27;20031;-83
2022/02/23 10:22:58;;;;;;;25.20;5.78;;;8.20;99.90;;;;;;5136464;27;20064;-78
2022/02/23 10:25:28;;;;;;;17.08;5.38;;;8.20;99.90;;;;;;5138524;27;20121;-79
2022/02/23 10:28:08;;;;;;;23.42;8.98;;;8.20;99.90;;;;;;5136738;27;20103;-79
2022/02/23 10:30:35;;;;;;;25.10;5.22;;;8.30;99.90;;;;;;5133725;27;20073;-78
2022/02/23 10:33:20;;;;;;;17.45;5.88;;;8.40;99.90;;;;;;5135910;27;20070;-78
2022/02/23 10:36:16;;;;;;;19.83;6.10;;;8.40;99.90;;;;;;5135354;27;20092;-78
2022/02/23 10:38:43;;;;;;;17.30;5.35;;;8.40;99.90;;;;;;5128613;27;20032;-78
2022/02/23 10:41:25;;;;;;;14.38;5.75;;;8.50;99.90;;;;;;5136114;27;20062;-77
2022/02/23 10:43:54;;;;;;;19.10;5.72;;;8.60;99.90;;;;;;5133041;27;20027;-78
2022/02/23 10:46:21;;;;;;;20.77;5.88;;;8.60;99.90;;;;;;5136893;27;20035;-79
2022/02/23 10:48:52;;;;;;;22.30;4.95;;;8.60;99.90;;;;;;5135692;27;20019;-80
2022/02/23 10:51:22;;;;;;;;;;;8.70;99.90;;;;;;5124953;27;20091;-79
2022/02/23 10:53:50;;;;;;;18.63;4.80;;;8.80;99.90;;;;;;5116393;28;19970;-78
2022/02/23 10:56:26;;;;;;;14.55;4.68;;;8.80;99.90;;;;;;5115332;27;20027;-79
2022/02/23 10:59:15;;;;;;;11.82;3.92;;;8.90;99.90;;;;;;5129113;27;20031;-78
2022/02/23 11:01:42;;;;;;;15.45;4.68;;;8.90;99.90;;;;;;5122469;27;20022;-78
2022/02/23 11:04:08;;;;;;;16.15;4.68;;;9.00;99.90;;;;;;5125948;27;20513;-77
2022/02/23 11:06:34;;;;;;;15.23;3.90;;;9.00;99.90;;;;;;5134310;27;20031;-79
2022/02/23 11:09:01;;;;;;;18.88;5.72;;;9.10;99.90;;;;;;5130332;27;20085;-78
2022/02/23 11:11:28;;;;;;;19.73;4.45;;;9.10;99.90;;;;;;5133674;27;20023;-79
2022/02/23 11:13:56;;;;;;;19.30;4.32;;;9.20;99.90;;;;;;5135648;27;20027;-80
2022/02/23 11:16:23;;;;;;;20.13;4.78;;;9.20;99.90;;;;;;5131250;27;20027;-80
2022/02/23 11:18:49;;;;;;;8.10;3.33;;;9.20;99.90;;;;;;5123039;27;20683;-81
2022/02/23 11:21:17;;;;;;;12.93;4.32;;;9.30;99.90;;;;;;5121963;27;20114;-79
2022/02/23 11:23:44;;;;;;;13.10;4.55;;;9.30;99.90;;;;;;5128639;27;20012;-80
2022/02/23 11:26:15;;;;;;;18.25;4.70;;;9.30;99.90;;;;;;5134764;27;20031;-80
2022/02/23 11:28:51;;;;;;;;;;;9.30;99.90;;;;;;5131516;27;20610;-79
2022/02/23 11:31:17;;;;;;;15.13;5.47;;;9.40;99.90;;;;;;5130131;27;20278;-80
2022/02/23 11:34:03;;;;;;;20.65;4.43;;;9.50;99.90;;;;;;5136969;27;20027;-81
2022/02/23 11:36:42;;;;;;;19.55;3.83;;;9.50;99.90;;;;;;5132203;27;20127;-82
2022/02/23 11:39:13;;;;;;;26.33;4.68;;;9.60;99.90;;;;;;5136114;27;20039;-81
2022/02/23 11:41:42;;;;;;;8.10;2.45;;;9.60;99.90;;;;;;5136168;27;20023;-80
2022/02/23 11:44:07;;;;;;;11.23;2.70;;;9.70;99.90;;;;;;5136748;27;20076;-79
2022/02/23 11:46:34;;;;;;;10.40;2.38;;;9.80;99.90;;;;;;5133690;27;20534;-80
2022/02/23 11:49:12;;;;;;;12.43;2.40;;;9.80;99.90;;;;;;5131530;27;20100;-81
2022/02/23 11:51:38;;;;;;;13.80;2.35;;;9.90;99.90;;;;;;5133139;27;20027;-80
2022/02/23 11:54:05;;;;;;;10.23;2.50;;;10.00;99.90;;;;;;5127953;27;20079;-80
2022/02/23 11:56:56;;;;;;;10.40;3.10;;;10.00;99.90;;;;;;5123674;27;20478;-80
2022/02/23 11:59:44;;;;;;;8.82;2.42;;;10.00;99.90;;;;;;5118513;27;20042;-78
2022/02/23 12:02:11;;;;;;;15.00;2.53;;;10.10;99.90;;;;;;5130210;27;20027;-80
2022/02/23 12:04:51;;;;;;;11.48;2.55;;;10.10;99.90;;;;;;5124472;27;20376;-81
2022/02/23 12:07:18;;;;;;;;;;;10.10;99.90;;;;;;5134645;27;20386;-79
2022/02/23 12:09:55;;;;;;;10.45;3.00;;;10.10;99.90;;;;;;5133655;27;19915;-80
2022/02/23 12:12:39;;;;;;;11.88;3.28;;;10.20;99.90;;;;;;5130728;27;20023;-80
2022/02/23 12:15:10;;;;;;;13.57;3.63;;;10.20;99.90;;;;;;5134401;27;20030;-81
2022/02/23 12:17:46;;;;;;;7.65;2.10;;;10.30;99.90;;;;;;5135686;27;20027;-79
2022/02/23 12:20:37;;;;;;;13.23;2.40;;;10.30;99.90;;;;;;5135531;27;20019;-80
2022/02/23 12:23:17;;;;;;;10.20;2.70;;;10.30;99.90;;;;;;5136119;27;20103;-78
2022/02/23 12:26:04;;;;;;;8.07;2.28;;;10.40;99.90;;;;;;5135425;27;20038;-80
2022/02/23 12:28:34;;;;;;;15.82;4.07;;;10.40;99.90;;;;;;5126839;27;20024;-81
2022/02/23 12:31:07;;;;;;;9.82;2.53;;;10.50;99.90;;;;;;5120079;27;20057;-80
2022/02/23 12:33:35;;;;;;;12.73;3.20;;;10.50;99.90;;;;;;5122865;27;20519;-79
2022/02/23 12:36:05;;;;;;;12.15;2.42;;;10.60;99.90;;;;;;5129696;27;20031;-80
2022/02/23 12:38:37;;;;;;;18.52;2.78;;;10.60;99.90;;;;;;5123012;27;20480;-81
2022/02/23 12:41:10;;;;;;;13.20;2.30;;;10.60;99.90;;;;;;5130979;27;20031;-78
2022/02/23 12:43:37;;;;;;;9.30;2.67;;;10.70;99.90;;;;;;5133190;27;20023;-79
2022/02/23 12:46:03;;;;;;;12.15;2.72;;;10.70;99.90;;;;;;5133663;27;20502;-79
2022/02/23 12:48:33;;;;;;;9.85;2.40;;;10.70;99.90;;;;;;5134085;27;20424;-79
2022/02/23 12:51:07;;;;;;;18.25;3.17;;;10.80;99.90;;;;;;5132875;28;20440;-79
2022/02/23 12:53:44;;;;;;;18.15;4.38;;;10.80;99.90;;;;;;5134140;28;20052;-80